createdAt,value
2018-12-21T00:03:35.161Z,48.65
2018-12-21T00:08:37.627Z,48.50
2018-12-21T00:13:40.120Z,48.75
2018-12-21T00:18:42.580Z,48.45
2018-12-21T00:23:45.088Z,48.49
2018-12-21T00:28:47.556Z,48.50
2018-12-21T00:33:56.049Z,48.49
2018-12-21T00:39:04.149Z,48.56
2018-12-21T00:44:08.661Z,48.32
2018-12-21T00:49:11.122Z,48.36
2018-12-21T00:54:13.953Z,48.42
2018-12-21T00:59:16.540Z,48.30
2018-12-21T01:04:19.936Z,48.40
2018-12-21T01:09:22.558Z,48.75
2018-12-21T01:14:25.030Z,48.11
2018-12-21T01:19:28.069Z,48.57
2018-12-21T01:24:30.535Z,48.91
2018-12-21T01:29:33.005Z,48.58
2018-12-21T01:34:35.472Z,48.47
2018-12-21T01:39:37.944Z,48.30
2018-12-21T01:44:40.413Z,48.50
2018-12-21T01:49:42.885Z,48.86
2018-12-21T01:54:45.487Z,48.45
2018-12-21T01:59:47.964Z,48.79
2018-12-21T02:04:50.428Z,48.44
2018-12-21T02:09:53.136Z,48.58
2018-12-21T02:14:55.662Z,48.61
2018-12-21T02:19:58.159Z,48.62
2018-12-21T02:25:00.624Z,48.81
2018-12-21T02:30:03.608Z,48.73
2018-12-21T02:35:06.793Z,48.96
2018-12-21T02:40:09.294Z,48.75
2018-12-21T02:45:11.810Z,48.46
2018-12-21T02:50:14.343Z,48.62
2018-12-21T02:55:16.821Z,48.51
2018-12-21T03:00:19.283Z,48.83
2018-12-21T03:05:21.818Z,48.53
2018-12-21T03:10:24.276Z,48.63
2018-12-21T03:15:26.803Z,48.83
2018-12-21T03:20:29.301Z,48.70
2018-12-21T03:25:32.497Z,48.67
2018-12-21T03:30:34.997Z,48.86
2018-12-21T03:35:37.462Z,48.71
2018-12-21T03:40:39.981Z,48.87
2018-12-21T03:45:42.641Z,48.31
2018-12-21T03:50:45.116Z,48.28
2018-12-21T03:55:47.576Z,48.22
2018-12-21T04:00:50.079Z,48.36
2018-12-21T04:05:52.553Z,48.78
2018-12-21T04:10:55.044Z,48.54
2018-12-21T04:15:58.104Z,48.64
2018-12-21T04:21:00.569Z,48.25
2018-12-21T04:26:03.047Z,48.48
2018-12-21T04:31:05.532Z,48.97
2018-12-21T04:36:08.016Z,48.35
2018-12-21T04:41:10.480Z,48.73
2018-12-21T04:46:13.079Z,48.41
2018-12-21T04:51:15.604Z,48.18
2018-12-21T04:56:18.081Z,48.65
2018-12-21T05:01:20.568Z,48.35
2018-12-21T05:06:23.034Z,48.60
2018-12-21T05:11:25.496Z,48.70
2018-12-21T05:16:27.965Z,48.71
2018-12-21T05:21:30.426Z,48.34
2018-12-21T05:26:32.883Z,48.25
2018-12-21T05:31:35.353Z,48.54
2018-12-21T05:36:37.829Z,48.57
2018-12-21T05:41:40.464Z,48.72
2018-12-21T05:46:42.945Z,48.44
2018-12-21T05:51:45.483Z,48.25
2018-12-21T05:56:47.948Z,48.69
2018-12-21T06:01:50.717Z,48.22
2018-12-21T06:06:53.365Z,48.76
2018-12-21T06:11:55.832Z,48.56
2018-12-21T06:16:58.320Z,48.21
2018-12-21T06:22:00.878Z,48.19
2018-12-21T06:27:04.049Z,48.39
2018-12-21T06:32:06.717Z,48.17
2018-12-21T06:37:09.318Z,48.45
2018-12-21T06:42:11.905Z,48.09
2018-12-21T06:47:14.389Z,48.17
2018-12-21T06:52:16.994Z,48.22
2018-12-21T06:57:19.476Z,48.59
2018-12-21T07:02:22.186Z,48.13
2018-12-21T07:07:24.645Z,48.11
2018-12-21T07:12:27.133Z,48.30
2018-12-21T07:17:29.597Z,48.16
2018-12-21T07:22:32.094Z,48.53
2018-12-21T07:27:34.703Z,48.37
2018-12-21T07:32:37.170Z,48.02
2018-12-21T07:37:39.712Z,48.25
2018-12-21T07:42:42.195Z,48.01
2018-12-21T07:47:44.815Z,48.35
2018-12-21T07:52:47.285Z,48.19
2018-12-21T07:57:49.752Z,42.59
2018-12-21T08:02:52.212Z,36.89
2018-12-21T08:07:54.800Z,36.87
2018-12-21T08:12:57.256Z,38.69
2018-12-21T08:17:59.716Z,39.54
2018-12-21T08:23:02.356Z,40.67
2018-12-21T08:28:04.888Z,41.37
2018-12-21T08:33:07.423Z,41.78
2018-12-21T08:38:10.700Z,41.95
2018-12-21T08:43:13.170Z,41.89
2018-12-21T08:48:15.632Z,42.49
2018-12-21T08:53:18.412Z,43.00
2018-12-21T08:58:20.903Z,43.03
2018-12-21T09:03:23.416Z,43.48
2018-12-21T09:08:25.941Z,43.57
2018-12-21T09:13:28.603Z,43.86
2018-12-21T09:18:31.082Z,44.02
2018-12-21T09:23:33.961Z,43.78
2018-12-21T09:28:36.591Z,44.02
2018-12-21T09:33:39.120Z,44.10
2018-12-21T09:38:41.584Z,44.43
2018-12-21T09:43:44.052Z,44.27
2018-12-21T09:48:46.631Z,44.64
2018-12-21T09:53:49.109Z,44.76
2018-12-21T09:58:51.585Z,44.95
2018-12-21T10:03:54.239Z,44.98
2018-12-21T10:08:56.747Z,44.85
2018-12-21T10:14:00.001Z,44.87
2018-12-21T10:19:02.483Z,44.42
2018-12-21T10:24:04.984Z,45.08
2018-12-21T10:29:07.464Z,45.01
2018-12-21T10:34:10.016Z,44.77
2018-12-21T10:39:12.485Z,45.17
2018-12-21T10:44:14.953Z,45.06
2018-12-21T10:49:17.488Z,45.25
2018-12-21T10:54:26.842Z,45.58
2018-12-21T10:59:24.621Z,45.87
2018-12-21T11:04:27.152Z,45.89
2018-12-21T11:09:29.620Z,45.80
2018-12-21T11:14:32.613Z,46.30
2018-12-21T11:19:35.996Z,46.79
2018-12-21T11:24:38.545Z,47.33
2018-12-21T11:29:41.084Z,47.46
2018-12-21T11:34:43.548Z,47.98
2018-12-21T11:39:46.019Z,48.04
2018-12-21T11:44:48.488Z,48.22
2018-12-21T11:49:51.116Z,48.07
2018-12-21T11:54:53.732Z,47.98
2018-12-21T11:59:56.326Z,47.64
2018-12-21T12:04:58.797Z,47.89
2018-12-21T12:10:01.267Z,47.94
2018-12-21T12:15:05.365Z,48.33
2018-12-21T12:20:07.996Z,48.26
2018-12-21T12:25:10.460Z,48.39
2018-12-21T12:30:12.924Z,48.52
2018-12-21T12:35:15.420Z,48.03
2018-12-21T12:40:17.940Z,48.37
2018-12-21T12:45:20.415Z,48.65
2018-12-21T12:50:22.947Z,48.75
2018-12-21T12:55:25.621Z,48.52
2018-12-21T13:00:28.120Z,48.84
2018-12-21T13:05:30.589Z,48.61
2018-12-21T13:10:33.067Z,49.17
2018-12-21T13:15:36.285Z,49.87
2018-12-21T13:20:38.781Z,50.50
2018-12-21T13:25:41.263Z,50.15
2018-12-21T13:30:43.760Z,49.97
2018-12-21T13:35:46.764Z,50.23
2018-12-21T13:40:49.236Z,50.39
2018-12-21T13:45:51.708Z,49.78
2018-12-21T13:50:54.252Z,49.74
2018-12-21T13:55:56.747Z,50.14
2018-12-21T14:00:59.300Z,50.19
2018-12-21T14:06:01.835Z,50.61
2018-12-21T14:11:04.349Z,50.54
2018-12-21T14:16:06.867Z,50.95
2018-12-21T14:21:09.333Z,50.57
2018-12-21T14:26:11.819Z,50.97
2018-12-21T14:31:14.535Z,50.73
2018-12-21T14:36:16.998Z,50.94
2018-12-21T14:41:19.579Z,50.91
2018-12-21T14:46:22.205Z,50.82
2018-12-21T14:51:24.715Z,50.58
2018-12-21T14:56:27.352Z,50.97
2018-12-21T15:01:29.948Z,51.06
2018-12-21T15:06:32.445Z,51.02
2018-12-21T15:11:34.977Z,51.22
2018-12-21T15:16:37.485Z,50.76
2018-12-21T15:21:39.980Z,50.71
2018-12-21T15:26:42.457Z,50.65
2018-12-21T15:31:45.484Z,51.00
2018-12-21T15:36:48.399Z,51.14
2018-12-21T15:41:50.994Z,51.05
2018-12-21T15:46:53.564Z,51.21
2018-12-21T15:51:56.064Z,50.58
2018-12-21T15:56:58.557Z,50.66
2018-12-21T16:02:01.089Z,51.17
2018-12-21T16:07:03.609Z,51.06
2018-12-21T16:12:06.157Z,51.13
2018-12-21T16:17:08.893Z,51.06
2018-12-21T16:22:11.399Z,50.75
2018-12-21T16:27:14.517Z,51.02
2018-12-21T16:32:16.989Z,50.58
2018-12-21T16:37:19.486Z,50.52
2018-12-21T16:42:21.971Z,50.60
2018-12-21T16:47:24.845Z,50.49
2018-12-21T16:52:27.363Z,50.87
2018-12-21T16:57:29.824Z,50.51
2018-12-21T17:02:33.259Z,50.40
2018-12-21T17:07:35.755Z,50.60
2018-12-21T17:12:38.243Z,50.62
2018-12-21T17:17:40.733Z,50.53
2018-12-21T17:22:43.196Z,50.17
2018-12-21T17:27:46.141Z,50.42
2018-12-21T17:32:48.609Z,50.41
2018-12-21T17:37:51.082Z,50.36
2018-12-21T17:42:53.579Z,49.89
2018-12-21T17:47:56.064Z,49.97
2018-12-21T17:52:58.527Z,49.92
2018-12-21T17:58:01.011Z,50.23
2018-12-21T18:03:03.527Z,50.17
2018-12-21T18:08:06.676Z,50.33
2018-12-21T18:13:09.306Z,50.03
2018-12-21T18:18:12.036Z,50.52
2018-12-21T18:23:15.243Z,50.29
2018-12-21T18:28:22.289Z,50.45
2018-12-21T18:33:24.933Z,50.34
2018-12-21T18:38:27.448Z,50.31
2018-12-21T18:43:29.919Z,50.41
2018-12-21T18:48:32.540Z,50.35
2018-12-21T18:53:35.017Z,50.39
2018-12-21T18:58:37.480Z,50.47
2018-12-21T19:03:39.978Z,50.04
2018-12-21T19:08:42.441Z,49.81
2018-12-21T19:13:44.946Z,49.87
2018-12-21T19:18:47.412Z,49.64
2018-12-21T19:23:49.871Z,50.06
2018-12-21T19:28:52.363Z,49.89
2018-12-21T19:33:54.836Z,49.98
2018-12-21T19:38:57.301Z,49.64
2018-12-21T19:43:59.763Z,49.69
2018-12-21T19:49:02.256Z,49.57
2018-12-21T19:54:04.744Z,49.43
2018-12-21T19:59:07.216Z,49.73
2018-12-21T20:04:09.693Z,49.94
2018-12-21T20:09:12.211Z,49.63
2018-12-21T20:14:14.772Z,49.62
2018-12-21T20:19:17.293Z,49.61
2018-12-21T20:24:19.814Z,49.57
2018-12-21T20:29:22.293Z,49.36
2018-12-21T20:34:24.887Z,49.59
2018-12-21T20:39:27.729Z,49.73
2018-12-21T20:44:30.241Z,49.52
2018-12-21T20:49:32.708Z,49.94
2018-12-21T20:54:36.565Z,49.33
2018-12-21T20:59:39.479Z,49.59
2018-12-21T21:04:42.076Z,49.40
2018-12-21T21:09:44.652Z,49.75
2018-12-21T21:14:47.362Z,49.66
2018-12-21T21:19:50.218Z,49.80
2018-12-21T21:24:52.697Z,49.85
2018-12-21T21:29:55.340Z,49.69
2018-12-21T21:34:58.396Z,49.58
2018-12-21T21:40:02.382Z,49.77
2018-12-21T21:45:08.164Z,49.65
2018-12-21T21:50:10.652Z,49.35
2018-12-21T21:55:13.172Z,49.92
2018-12-21T22:00:15.732Z,49.32
2018-12-21T22:05:18.353Z,49.45
2018-12-21T22:10:20.848Z,49.44
2018-12-21T22:15:23.985Z,49.39
2018-12-21T22:20:26.484Z,49.69
2018-12-21T22:25:29.053Z,49.78
2018-12-21T22:30:31.701Z,49.67
2018-12-21T22:35:34.193Z,49.31
2018-12-21T22:40:36.689Z,49.31
2018-12-21T22:45:39.264Z,49.50
2018-12-21T22:50:41.959Z,49.64
2018-12-21T22:55:44.429Z,49.44
2018-12-21T23:00:47.221Z,49.43
2018-12-21T23:05:49.747Z,49.14
2018-12-21T23:10:52.837Z,49.55
2018-12-21T23:15:55.313Z,49.48
2018-12-21T23:20:57.892Z,49.74
2018-12-21T23:26:00.359Z,49.31
2018-12-21T23:31:02.820Z,49.35
2018-12-21T23:36:05.705Z,49.19
2018-12-21T23:41:08.176Z,49.29
2018-12-21T23:46:10.731Z,49.71
2018-12-21T23:51:13.309Z,49.65
2018-12-21T23:56:15.776Z,49.41
